Time;durP1;ratioP1;P1;durP2;ratioP2;P2;SDS_P1;SDS_P2;PMS_P1;PMS_P2;Temp;Humidity;BMP_temperature;BMP_pressure;BME280_temperature;BME280_humidity;BME280_pressure;Samples;Min_cycle;Max_cycle;Signal;HPM_P1;HPM_P2
2022/03/20 00:00:54;;;;;;;51.22;4.30;;;31.50;18.40;;;;;;4951834;28;20067;-61
2022/03/20 00:03:23;;;;;;;35.08;3.70;;;31.40;18.30;;;;;;4951996;28;20775;-61
2022/03/20 00:05:51;;;;;;;41.97;3.50;;;31.40;18.50;;;;;;4953009;28;20474;-60
2022/03/20 00:08:17;;;;;;;38.33;4.35;;;31.30;18.70;;;;;;4936108;29;20161;-59
2022/03/20 00:10:46;;;;;;;93.28;7.15;;;31.30;19.00;;;;;;4952743;29;20542;-60
2022/03/20 00:13:15;;;;;;;82.63;4.57;;;31.30;18.90;;;;;;4950902;28;20090;-62
2022/03/20 00:15:43;;;;;;;38.05;4.22;;;31.20;18.10;;;;;;4968508;28;20118;-63
2022/03/20 00:18:14;;;;;;;50.75;4.90;;;30.90;18.00;;;;;;4937106;28;20070;-60
2022/03/20 00:20:45;;;;;;;30.92;3.78;;;30.80;18.20;;;;;;4953353;28;20078;-63
2022/03/20 00:23:12;;;;;;;55.42;5.30;;;30.50;18.40;;;;;;4968226;28;20070;-60
2022/03/20 00:25:50;;;;;;;69.22;5.35;;;30.40;18.30;;;;;;4953243;28;20074;-61
2022/03/20 00:28:18;;;;;;;49.58;5.38;;;30.20;18.20;;;;;;4943318;28;20170;-62
2022/03/20 00:30:46;;;;;;;56.25;5.13;;;30.10;18.20;;;;;;4950969;28;20547;-64
2022/03/20 00:33:12;;;;;;;58.97;6.55;;;29.90;18.00;;;;;;4949644;29;20071;-61
2022/03/20 00:35:39;;;;;;;53.45;6.60;;;29.50;18.30;;;;;;4937024;29;20189;-61
2022/03/20 00:38:07;;;;;;;53.22;5.78;;;29.50;18.50;;;;;;4952553;28;20145;-60
2022/03/20 00:40:34;;;;;;;44.60;4.28;;;29.40;18.50;;;;;;4936866;28;20113;-61
2022/03/20 00:43:01;;;;;;;44.78;4.70;;;29.30;18.40;;;;;;4936473;28;20071;-61
2022/03/20 00:45:30;;;;;;;34.60;3.47;;;29.10;18.30;;;;;;4952473;28;20158;-60
2022/03/20 00:47:56;;;;;;;32.17;3.65;;;29.00;18.40;;;;;;4967805;28;20079;-60
2022/03/20 00:50:23;;;;;;;38.65;3.97;;;28.90;18.40;;;;;;4953780;29;20090;-59
2022/03/20 00:52:50;;;;;;;28.92;3.47;;;28.70;18.50;;;;;;4952652;28;20599;-61
2022/03/20 00:55:16;;;;;;;27.25;3.90;;;28.60;18.50;;;;;;4951917;29;20185;-62
2022/03/20 00:57:43;;;;;;;25.98;3.13;;;28.50;18.40;;;;;;4966751;28;20154;-61
2022/03/20 01:00:10;;;;;;;21.42;3.13;;;28.40;18.50;;;;;;4956374;28;20080;-61
2022/03/20 01:02:38;;;;;;;22.02;3.13;;;28.30;18.60;;;;;;4951830;29;20110;-58
2022/03/20 01:05:05;;;;;;;31.13;3.80;;;28.20;18.60;;;;;;4952604;28;20570;-59
2022/03/20 01:07:31;;;;;;;21.52;4.38;;;28.10;18.60;;;;;;4952321;28;20080;-61
2022/03/20 01:09:58;;;;;;;38.30;5.55;;;28.20;18.60;;;;;;4967245;28;20076;-59
2022/03/20 01:12:24;;;;;;;28.15;6.25;;;28.10;18.90;;;;;;4951922;28;20147;-61
2022/03/20 01:14:50;;;;;;;24.58;6.30;;;28.00;19.20;;;;;;4951243;29;20095;-57
2022/03/20 01:17:17;;;;;;;31.58;7.45;;;28.10;19.40;;;;;;4951953;29;20522;-61
2022/03/20 01:19:43;;;;;;;28.00;5.60;;;28.00;19.70;;;;;;4952702;28;20075;-60
2022/03/20 01:22:11;;;;;;;29.70;5.07;;;28.00;19.50;;;;;;4951667;29;20075;-59
2022/03/20 01:24:37;;;;;;;31.10;3.90;;;27.90;20.60;;;;;;4939435;29;20595;-60
2022/03/20 01:27:04;;;;;;;20.05;3.13;;;27.90;21.70;;;;;;4951440;29;20427;-61
2022/03/20 01:29:30;;;;;;;24.95;3.15;;;27.80;23.60;;;;;;4944299;28;20551;-59
2022/03/20 01:31:56;;;;;;;21.70;3.10;;;27.70;25.30;;;;;;4953667;28;20089;-58
2022/03/20 01:34:23;;;;;;;13.77;2.95;;;27.70;25.70;;;;;;4952460;28;20103;-60
2022/03/20 01:36:49;;;;;;;22.50;3.85;;;27.50;26.30;;;;;;4951951;28;20068;-60
2022/03/20 01:39:16;;;;;;;21.63;4.22;;;27.40;26.50;;;;;;4951101;29;20137;-59
2022/03/20 01:41:46;;;;;;;24.23;4.57;;;27.40;26.30;;;;;;4947972;28;20102;-57
2022/03/20 01:44:13;;;;;;;29.45;4.13;;;27.20;26.00;;;;;;4962647;28;20078;-56
2022/03/20 01:46:39;;;;;;;43.42;5.20;;;27.20;25.50;;;;;;4943393;29;20095;-57
2022/03/20 01:49:06;;;;;;;55.22;6.35;;;27.10;24.40;;;;;;4966932;28;20072;-56
2022/03/20 01:54:18;;;;;;;68.82;6.97;;;26.80;22.70;;;;;;4952084;29;20107;-58
2022/03/20 01:56:48;;;;;;;102.85;9.20;;;26.80;22.30;;;;;;4952014;28;20088;-60
2022/03/20 01:59:16;;;;;;;105.57;10.18;;;26.70;19.80;;;;;;4951947;28;20076;-60
2022/03/20 02:01:43;;;;;;;137.95;11.10;;;26.50;18.70;;;;;;4966540;28;20143;-59
2022/03/20 02:04:16;;;;;;;120.95;10.65;;;26.40;18.50;;;;;;4951053;29;20079;-56
2022/03/20 02:06:45;;;;;;;95.60;9.60;;;26.20;18.10;;;;;;4951198;29;20568;-61
2022/03/20 02:09:13;;;;;;;70.53;7.60;;;26.20;18.40;;;;;;4949690;29;20098;-61
2022/03/20 02:11:42;;;;;;;49.38;6.88;;;26.20;18.80;;;;;;4950952;29;20130;-57
2022/03/20 02:14:09;;;;;;;45.42;6.28;;;26.10;21.90;;;;;;4951111;28;20096;-59
2022/03/20 02:16:37;;;;;;;69.15;8.85;;;25.90;22.10;;;;;;4965639;28;20072;-60
2022/03/20 02:19:06;;;;;;;71.22;9.15;;;25.70;23.90;;;;;;4950571;28;20079;-62
2022/03/20 02:21:39;;;;;;;80.57;10.05;;;25.70;25.70;;;;;;4966055;28;20088;-59
2022/03/20 02:24:24;;;;;;;90.63;9.82;;;25.60;27.00;;;;;;4949490;28;20110;-60
2022/03/20 02:26:50;;;;;;;73.10;9.85;;;25.40;27.90;;;;;;4950349;29;20086;-59
2022/03/20 02:29:17;;;;;;;69.28;8.35;;;25.30;28.80;;;;;;4952048;28;20087;-60
2022/03/20 02:31:43;;;;;;;83.53;9.32;;;25.20;29.40;;;;;;4950250;28;20080;-64
2022/03/20 02:34:10;;;;;;;58.28;7.68;;;25.00;30.00;;;;;;4950540;28;20091;-64
2022/03/20 02:36:36;;;;;;;66.20;8.63;;;24.90;30.20;;;;;;4951215;28;20083;-62
2022/03/20 02:39:04;;;;;;;213.75;15.85;;;24.70;30.10;;;;;;4950526;29;20087;-59
2022/03/20 02:41:31;;;;;;;53.50;7.53;;;24.60;30.20;;;;;;4950286;28;20603;-59
2022/03/20 02:43:59;;;;;;;50.65;8.07;;;24.60;30.30;;;;;;4953734;28;20078;-61
2022/03/20 02:46:26;;;;;;;41.05;5.40;;;24.50;29.60;;;;;;4950864;29;20404;-59
2022/03/20 02:48:54;;;;;;;34.03;4.72;;;24.40;29.50;;;;;;4951635;28;20088;-60
2022/03/20 02:51:20;;;;;;;36.10;5.13;;;24.40;30.00;;;;;;4950734;28;20071;-60
2022/03/20 02:53:46;;;;;;;32.03;4.20;;;24.30;30.50;;;;;;4949746;29;20100;-61
2022/03/20 02:56:13;;;;;;;47.03;5.68;;;24.20;30.90;;;;;;4932269;28;20096;-65
2022/03/20 02:58:39;;;;;;;55.83;6.18;;;24.10;31.00;;;;;;4951620;28;20075;-62
2022/03/20 03:01:06;;;;;;;42.65;4.80;;;24.00;31.30;;;;;;4948842;28;20103;-63
2022/03/20 03:03:33;;;;;;;44.33;10.15;;;23.90;31.70;;;;;;4950669;28;20083;-64
2022/03/20 03:06:06;;;;;;;55.40;6.65;;;23.90;31.80;;;;;;4934450;29;20150;-61
2022/03/20 03:11:18;;;;;;;45.55;5.47;;;23.70;31.40;;;;;;4949697;29;20550;-63
2022/03/20 03:13:44;;;;;;;60.10;5.95;;;23.70;30.90;;;;;;4949697;29;20111;-61
2022/03/20 03:16:13;;;;;;;53.25;6.60;;;23.50;30.70;;;;;;4949708;28;20126;-59
2022/03/20 03:18:44;;;;;;;59.83;7.10;;;23.50;30.70;;;;;;4964787;28;20444;-62
2022/03/20 03:21:12;;;;;;;127.68;10.30;;;23.40;30.70;;;;;;4936279;28;20078;-62
2022/03/20 03:23:39;;;;;;;106.45;9.75;;;23.20;30.70;;;;;;4965908;28;20072;-62
2022/03/20 03:26:06;;;;;;;150.27;14.98;;;23.10;30.50;;;;;;4964405;28;20583;-63
2022/03/20 03:28:34;;;;;;;130.50;12.98;;;23.10;30.00;;;;;;4949751;28;20170;-63
2022/03/20 03:31:06;;;;;;;188.93;16.67;;;22.90;30.60;;;;;;4964508;28;20133;-66
2022/03/20 03:33:33;;;;;;;158.32;14.68;;;22.90;30.20;;;;;;4951696;28;20082;-62
2022/03/20 03:36:01;;;;;;;134.77;13.10;;;22.80;30.40;;;;;;4933215;29;20096;-61
2022/03/20 03:38:35;;;;;;;123.50;11.30;;;22.80;30.20;;;;;;4939395;29;20119;-60
2022/03/20 03:41:02;;;;;;;79.30;8.95;;;22.70;30.70;;;;;;4943825;29;20070;-63
2022/03/20 03:43:29;;;;;;;73.05;8.13;;;22.60;31.70;;;;;;4965827;28;20455;-62
2022/03/20 03:45:56;;;;;;;80.15;8.93;;;22.60;33.20;;;;;;4949680;28;20143;-62
2022/03/20 03:48:23;;;;;;;99.22;10.35;;;22.40;33.90;;;;;;4949065;28;20803;-62
2022/03/20 03:50:52;;;;;;;116.93;10.77;;;22.30;32.70;;;;;;4950308;28;20079;-61
2022/03/20 03:53:18;;;;;;;127.63;10.43;;;22.20;30.90;;;;;;4964034;28;20560;-65
2022/03/20 03:55:44;;;;;;;112.75;8.23;;;22.30;30.10;;;;;;4950120;28;20109;-63
2022/03/20 03:58:15;;;;;;;66.47;6.45;;;22.20;30.90;;;;;;4963954;28;20095;-59
2022/03/20 04:00:43;;;;;;;64.00;7.03;;;22.10;31.30;;;;;;4949519;28;20524;-60
2022/03/20 04:03:10;;;;;;;71.38;7.00;;;22.10;31.70;;;;;;4950403;28;20182;-64
2022/03/20 04:05:36;;;;;;;94.75;6.60;;;22.00;32.50;;;;;;4947401;29;20206;-62
2022/03/20 04:08:05;;;;;;;206.60;12.68;;;22.00;32.50;;;;;;4949824;28;20159;-60
2022/03/20 04:10:32;;;;;;;58.10;5.85;;;22.00;31.20;;;;;;4948925;29;20162;-60
2022/03/20 04:12:59;;;;;;;89.95;5.97;;;22.00;32.00;;;;;;4950629;28;20110;-61
2022/03/20 04:15:26;;;;;;;52.25;5.82;;;21.90;33.70;;;;;;4947571;29;20127;-59
2022/03/20 04:17:53;;;;;;;28.15;4.18;;;21.80;33.40;;;;;;4949079;28;20079;-60
2022/03/20 04:20:20;;;;;;;59.55;5.20;;;21.70;33.10;;;;;;4961288;28;20167;-57
2022/03/20 04:25:32;;;;;;;38.20;3.97;;;21.60;35.20;;;;;;4948609;28;20552;-59
2022/03/20 04:27:59;;;;;;;22.50;3.63;;;21.50;33.70;;;;;;4963817;28;20579;-63
2022/03/20 04:30:27;;;;;;;33.15;3.95;;;21.50;32.90;;;;;;4948482;28;20114;-62
2022/03/20 04:32:54;;;;;;;59.58;5.22;;;21.50;31.70;;;;;;4949453;28;20109;-61
2022/03/20 04:35:23;;;;;;;82.97;8.02;;;21.60;30.90;;;;;;4963958;28;20492;-63
2022/03/20 04:37:51;;;;;;;130.85;9.68;;;21.60;29.40;;;;;;4948878;29;20111;-58
2022/03/20 04:40:17;;;;;;;115.22;8.07;;;21.70;27.90;;;;;;4964657;28;20076;-61
2022/03/20 04:42:44;;;;;;;78.38;7.22;;;21.80;27.20;;;;;;4948526;29;20345;-57
2022/03/20 04:45:12;;;;;;;73.32;5.75;;;21.80;27.20;;;;;;4948478;28;20115;-62
2022/03/20 04:58:40;;;;;;;78.97;6.30;;;21.50;32.90;;;;;;4951795;29;20551;-58
2022/03/20 05:01:08;;;;;;;83.40;6.68;;;21.40;32.40;;;;;;4950116;29;20082;-62
2022/03/20 05:03:35;;;;;;;41.60;4.60;;;21.20;33.90;;;;;;4953781;29;20518;-62
2022/03/20 05:06:08;;;;;;;60.63;5.63;;;21.20;35.20;;;;;;4954382;28;20111;-59
2022/03/20 05:08:39;;;;;;;47.90;5.18;;;21.10;34.90;;;;;;4952597;28;20076;-60
2022/03/20 05:13:51;;;;;;;41.38;4.43;;;21.00;36.10;;;;;;4952356;28;20625;-57
2022/03/20 05:16:17;;;;;;;57.83;5.10;;;21.00;37.20;;;;;;4951792;29;20559;-57
2022/03/20 05:18:44;;;;;;;44.55;4.53;;;20.90;36.70;;;;;;4952417;28;20071;-57
2022/03/20 05:21:10;;;;;;;56.83;4.85;;;20.90;35.80;;;;;;4949213;28;20218;-59
2022/03/20 05:23:37;;;;;;;39.60;5.38;;;20.80;35.60;;;;;;4951890;29;20443;-62
2022/03/20 05:26:04;;;;;;;36.83;4.35;;;20.80;36.40;;;;;;4967590;28;20135;-57
2022/03/20 05:28:30;;;;;;;28.88;3.00;;;20.70;36.50;;;;;;4951651;28;20464;-61
2022/03/20 05:30:57;;;;;;;48.33;4.40;;;20.70;35.60;;;;;;4966889;28;20079;-58
2022/03/20 05:33:24;;;;;;;43.83;3.83;;;20.80;35.70;;;;;;4966643;28;20080;-59
2022/03/20 05:35:50;;;;;;;48.58;4.30;;;20.80;35.30;;;;;;4966984;28;20096;-61
2022/03/20 05:38:17;;;;;;;35.55;4.05;;;20.70;34.60;;;;;;4934037;29;20091;-61
2022/03/20 05:40:44;;;;;;;43.33;5.05;;;20.80;34.20;;;;;;4966005;28;20171;-58
2022/03/20 05:43:10;;;;;;;20.83;2.80;;;20.80;34.60;;;;;;4950530;29;20167;-62
2022/03/20 05:45:40;;;;;;;27.60;3.03;;;20.70;34.50;;;;;;4951646;28;20092;-59
2022/03/20 05:48:10;;;;;;;21.70;2.60;;;20.80;34.50;;;;;;4966588;28;20076;-60
2022/03/20 05:50:37;;;;;;;20.30;2.80;;;20.80;34.10;;;;;;4936932;28;20130;-59
2022/03/20 05:53:03;;;;;;;27.60;3.25;;;20.80;33.60;;;;;;4951884;29;20075;-60
2022/03/20 05:58:15;;;;;;;25.23;2.67;;;20.90;34.40;;;;;;4949523;28;20510;-62
2022/03/20 06:00:42;;;;;;;9.00;2.20;;;20.80;34.20;;;;;;4950714;28;20575;-59
2022/03/20 06:03:10;;;;;;;15.13;2.00;;;20.80;34.20;;;;;;4951281;28;20080;-62
2022/03/20 06:05:37;;;;;;;15.10;3.00;;;20.80;34.60;;;;;;4950210;28;20107;-59
2022/03/20 06:08:04;;;;;;;12.40;2.83;;;20.70;35.80;;;;;;4951482;29;20551;-58
2022/03/20 06:10:31;;;;;;;16.90;2.92;;;20.60;36.70;;;;;;4950752;29;20239;-59
2022/03/20 06:12:58;;;;;;;10.05;2.47;;;20.50;37.30;;;;;;4950303;28;20471;-60
2022/03/20 06:15:24;;;;;;;;;;;20.50;37.20;;;;;;4950992;28;20512;-57
2022/03/20 06:17:50;;;;;;;9.43;2.00;;;20.40;37.70;;;;;;4951474;28;19966;-58
2022/03/20 06:20:17;;;;;;;4.32;1.90;;;20.40;37.50;;;;;;4963493;28;20114;-58
2022/03/20 06:22:49;;;;;;;17.60;2.10;;;20.30;38.00;;;;;;4966209;28;20072;-59
2022/03/20 06:25:16;;;;;;;9.13;1.75;;;20.20;41.10;;;;;;4948636;29;20133;-60
2022/03/20 06:27:47;;;;;;;15.32;2.58;;;20.00;42.80;;;;;;4962681;28;20512;-58
2022/03/20 06:30:15;;;;;;;14.10;2.60;;;19.80;43.30;;;;;;4962935;28;20108;-59
2022/03/20 06:32:44;;;;;;;12.98;2.65;;;19.80;43.00;;;;;;4948837;29;20166;-60
2022/03/20 06:35:11;;;;;;;10.88;2.00;;;19.80;43.00;;;;;;4948491;28;20449;-61
2022/03/20 06:37:39;;;;;;;26.85;4.30;;;19.80;42.90;;;;;;4954114;28;20074;-60
2022/03/20 06:40:07;;;;;;;18.45;2.83;;;19.80;43.10;;;;;;4948148;28;20204;-59
2022/03/20 06:42:34;;;;;;;17.92;2.30;;;19.70;43.40;;;;;;4949585;28;20080;-58
2022/03/20 06:45:03;;;;;;;22.55;2.78;;;19.70;43.60;;;;;;4963903;28;20075;-57
2022/03/20 06:47:32;;;;;;;16.33;2.08;;;19.70;44.10;;;;;;4960018;28;20082;-60
2022/03/20 06:50:00;;;;;;;15.85;2.10;;;19.70;44.20;;;;;;4962080;28;20084;-57
2022/03/20 06:52:30;;;;;;;13.70;2.75;;;19.70;44.10;;;;;;4964425;28;20083;-61
2022/03/20 06:55:01;;;;;;;10.38;2.30;;;19.70;43.10;;;;;;4960858;28;20088;-59
2022/03/20 06:57:30;;;;;;;10.35;2.00;;;19.80;42.10;;;;;;4946161;28;20135;-59
2022/03/20 06:59:57;;;;;;;9.75;1.42;;;19.80;42.00;;;;;;4951200;29;20090;-61
2022/03/20 07:02:24;;;;;;;29.70;2.05;;;19.90;42.00;;;;;;4965189;28;20075;-59
2022/03/20 07:04:51;;;;;;;38.05;2.70;;;20.00;42.20;;;;;;4960379;28;20082;-60
2022/03/20 07:07:23;;;;;;;35.70;2.80;;;20.00;42.80;;;;;;4950044;28;20594;-57
2022/03/20 07:09:50;;;;;;;25.48;3.10;;;20.00;43.80;;;;;;4955470;28;20088;-59
2022/03/20 07:12:16;;;;;;;18.98;2.45;;;20.00;43.50;;;;;;4948837;28;20071;-59
2022/03/20 07:14:45;;;;;;;74.30;5.20;;;19.90;43.60;;;;;;4945777;28;20130;-58
2022/03/20 07:17:16;;;;;;;34.75;2.53;;;19.80;43.80;;;;;;4962568;28;20134;-61
2022/03/20 07:19:44;;;;;;;32.05;2.85;;;19.80;44.20;;;;;;4959673;28;20776;-63
2022/03/20 07:22:12;;;;;;;33.47;3.35;;;19.80;44.50;;;;;;4959817;28;20108;-63
2022/03/20 07:24:41;;;;;;;68.93;5.78;;;19.80;44.90;;;;;;4948238;28;20075;-56
2022/03/20 07:29:54;;;;;;;15.13;1.60;;;19.70;45.60;;;;;;4947343;29;20094;-58
2022/03/20 07:32:21;;;;;;;21.83;2.25;;;19.70;46.00;;;;;;4949637;28;20724;-59
2022/03/20 07:34:48;;;;;;;22.08;2.63;;;19.60;46.20;;;;;;4946513;29;20142;-59
2022/03/20 07:37:16;;;;;;;27.38;2.47;;;19.50;46.50;;;;;;4948888;29;20080;-58
2022/03/20 07:39:48;;;;;;;26.92;3.60;;;19.50;46.70;;;;;;4949816;28;20138;-58
2022/03/20 07:42:15;;;;;;;31.33;3.45;;;19.50;47.00;;;;;;4941129;29;20106;-60
2022/03/20 07:44:42;;;;;;;18.42;3.28;;;19.40;47.50;;;;;;4944800;28;20544;-59
2022/03/20 07:47:17;;;;;;;26.95;3.47;;;19.30;47.90;;;;;;4962561;28;20170;-56
2022/03/20 07:49:44;;;;;;;11.82;2.03;;;19.20;48.10;;;;;;4949389;29;20504;-56
2022/03/20 07:52:11;;;;;;;17.92;2.35;;;19.10;48.60;;;;;;4947069;28;20212;-56
2022/03/20 07:54:38;;;;;;;28.23;2.63;;;19.10;48.90;;;;;;4949284;28;20095;-56
2022/03/20 07:57:05;;;;;;;15.15;2.45;;;19.20;49.10;;;;;;4955353;28;20467;-59
2022/03/20 07:59:32;;;;;;;11.07;2.17;;;19.10;49.10;;;;;;4953119;28;20076;-59
2022/03/20 08:01:58;;;;;;;14.75;2.20;;;19.20;49.10;;;;;;4947597;28;20078;-57
2022/03/20 08:04:24;;;;;;;16.98;2.10;;;19.20;49.00;;;;;;4954638;28;20182;-57
2022/03/20 08:06:50;;;;;;;;;;;19.20;49.20;;;;;;4947130;29;20126;-57
2022/03/20 08:09:17;;;;;;;10.50;1.73;;;19.20;49.30;;;;;;4949865;29;19971;-56
2022/03/20 08:11:44;;;;;;;19.40;1.98;;;19.20;49.50;;;;;;4945530;28;20088;-57
2022/03/20 08:14:10;;;;;;;16.02;2.38;;;19.20;49.70;;;;;;4957209;28;20076;-58
2022/03/20 08:16:39;;;;;;;22.40;2.30;;;19.20;50.00;;;;;;4961389;28;20578;-60
2022/03/20 08:19:08;;;;;;;9.27;1.38;;;19.20;50.30;;;;;;4958047;28;20083;-57
2022/03/20 08:21:35;;;;;;;12.15;2.60;;;19.20;50.40;;;;;;4964625;28;20103;-61
2022/03/20 08:24:02;;;;;;;14.60;2.15;;;19.10;50.60;;;;;;4953323;28;20146;-57
2022/03/20 08:26:31;;;;;;;11.32;2.15;;;19.00;50.80;;;;;;4948640;28;20080;-58
2022/03/20 08:28:59;;;;;;;15.70;1.98;;;19.00;51.10;;;;;;4952238;28;20540;-58
2022/03/20 08:31:27;;;;;;;13.85;1.60;;;19.00;51.30;;;;;;4965413;28;20079;-61
2022/03/20 08:33:53;;;;;;;15.43;2.00;;;19.00;51.40;;;;;;4952503;29;20440;-57
2022/03/20 08:36:20;;;;;;;12.65;1.75;;;19.00;51.50;;;;;;4966818;28;20479;-59
2022/03/20 08:38:47;;;;;;;22.58;2.30;;;19.00;51.60;;;;;;4951938;28;20542;-58
2022/03/20 08:41:14;;;;;;;10.02;1.92;;;18.90;51.70;;;;;;4959812;28;20068;-58
2022/03/20 08:43:40;;;;;;;14.55;2.35;;;18.90;52.00;;;;;;4952832;28;20082;-57
2022/03/20 08:46:06;;;;;;;;;;;18.80;52.30;;;;;;4950284;28;20096;-59
2022/03/20 08:48:33;;;;;;;33.97;3.53;;;18.70;52.80;;;;;;4949241;29;19963;-58
2022/03/20 08:50:59;;;;;;;;;;;18.60;53.70;;;;;;4936968;28;20155;-60
2022/03/20 08:53:25;;;;;;;89.57;5.55;;;18.40;54.60;;;;;;4964389;28;19967;-57
2022/03/20 08:55:52;;;;;;;43.58;4.65;;;18.30;55.80;;;;;;4951603;29;20186;-58
2022/03/20 08:58:18;;;;;;;30.48;4.20;;;18.20;56.70;;;;;;4949086;28;20092;-60
2022/03/20 09:00:44;;;;;;;;;;;18.10;57.30;;;;;;4960282;28;20107;-60
2022/03/20 09:03:12;;;;;;;16.48;2.50;;;18.00;57.80;;;;;;4951357;28;20350;-59
2022/03/20 09:05:38;;;;;;;12.65;2.42;;;17.90;58.10;;;;;;4949368;28;20131;-58
2022/03/20 09:08:05;;;;;;;19.90;2.92;;;17.90;58.40;;;;;;4960462;28;20086;-59
2022/03/20 09:10:33;;;;;;;26.60;3.15;;;17.90;58.50;;;;;;4962642;28;20076;-57
2022/03/20 09:13:02;;;;;;;24.48;2.88;;;17.90;58.40;;;;;;4956638;28;20532;-57
2022/03/20 09:15:30;;;;;;;38.50;3.50;;;17.90;58.50;;;;;;4949941;28;20092;-57
2022/03/20 09:20:42;;;;;;;51.22;4.70;;;18.00;58.60;;;;;;4964586;28;20126;-58
2022/03/20 09:23:11;;;;;;;38.50;3.70;;;18.00;58.60;;;;;;4950999;28;20072;-56
2022/03/20 09:25:37;;;;;;;59.20;4.60;;;18.00;58.50;;;;;;4949492;29;20083;-58
2022/03/20 09:28:06;;;;;;;75.70;5.68;;;18.00;58.60;;;;;;4934850;29;20102;-61
2022/03/20 09:30:33;;;;;;;73.72;7.13;;;18.00;58.90;;;;;;4943342;29;20083;-58
2022/03/20 09:33:04;;;;;;;81.70;5.75;;;17.90;59.10;;;;;;4934621;28;20096;-56
2022/03/20 09:35:33;;;;;;;79.45;5.65;;;18.00;59.20;;;;;;4964701;28;20087;-57
2022/03/20 09:37:59;;;;;;;88.75;6.93;;;18.00;59.20;;;;;;4966947;28;20130;-57
2022/03/20 09:40:26;;;;;;;51.00;4.65;;;18.00;59.40;;;;;;4950450;29;20078;-60
2022/03/20 09:42:52;;;;;;;37.92;3.70;;;17.90;59.70;;;;;;4950630;28;20082;-55
2022/03/20 09:45:20;;;;;;;25.00;2.90;;;17.90;60.10;;;;;;4948922;28;20083;-56
2022/03/20 09:47:47;;;;;;;15.75;1.95;;;17.80;60.70;;;;;;4953937;28;20202;-61
2022/03/20 09:50:14;;;;;;;11.95;1.50;;;17.80;61.20;;;;;;4949141;29;20072;-57
2022/03/20 09:52:42;;;;;;;13.48;2.47;;;17.80;61.50;;;;;;4950561;28;21425;-61
2022/03/20 09:55:10;;;;;;;14.18;2.17;;;17.70;61.80;;;;;;4951731;28;20488;-61
2022/03/20 09:57:37;;;;;;;13.55;1.45;;;17.70;62.20;;;;;;4956750;28;20088;-60
2022/03/20 10:00:10;;;;;;;11.50;1.95;;;17.60;62.70;;;;;;4957437;28;20079;-60
2022/03/20 10:02:37;;;;;;;9.20;1.77;;;17.60;62.90;;;;;;4949862;29;20080;-56
2022/03/20 10:05:04;;;;;;;;;;;17.60;63.20;;;;;;4946800;29;20119;-57
2022/03/20 10:07:39;;;;;;;14.55;2.17;;;17.60;63.40;;;;;;4951625;28;19966;-53
2022/03/20 10:10:25;;;;;;;13.73;1.85;;;17.60;63.60;;;;;;4949794;29;20087;-59
2022/03/20 10:12:56;;;;;;;18.88;1.40;;;17.60;63.80;;;;;;4949651;29;20088;-59
2022/03/20 10:15:33;;;;;;;12.02;1.50;;;17.50;64.10;;;;;;4960802;28;20179;-58
2022/03/20 10:18:20;;;;;;;12.38;1.83;;;17.50;64.50;;;;;;4948114;28;20078;-58
2022/03/20 10:20:51;;;;;;;16.10;1.75;;;17.50;64.70;;;;;;4965081;28;20102;-58
2022/03/20 10:23:36;;;;;;;15.90;1.77;;;17.50;65.10;;;;;;4950259;29;20172;-59
2022/03/20 10:26:17;;;;;;;16.30;1.40;;;17.40;65.60;;;;;;4957492;28;20079;-58
2022/03/20 10:28:49;;;;;;;15.60;1.98;;;17.30;66.10;;;;;;4932466;28;20459;-59
2022/03/20 10:31:20;;;;;;;24.35;2.20;;;17.30;66.50;;;;;;4950229;29;20107;-58
2022/03/20 10:34:09;;;;;;;18.67;2.28;;;17.30;66.80;;;;;;4948828;29;20103;-56
2022/03/20 10:36:36;;;;;;;14.25;2.08;;;17.30;66.60;;;;;;4964270;28;20091;-60
2022/03/20 10:39:09;;;;;;;18.05;2.45;;;17.30;66.60;;;;;;4932584;28;20201;-58
2022/03/20 10:41:38;;;;;;;21.17;1.73;;;17.30;66.60;;;;;;4962684;28;20084;-58
2022/03/20 10:44:16;;;;;;;10.55;2.10;;;17.30;67.50;;;;;;4955473;28;20112;-59
2022/03/20 10:46:43;;;;;;;11.15;1.52;;;17.20;68.50;;;;;;4947424;28;20204;-58
2022/03/20 10:49:19;;;;;;;8.70;1.10;;;17.10;69.20;;;;;;4957097;28;20068;-57
2022/03/20 10:51:59;;;;;;;9.32;1.10;;;17.10;69.80;;;;;;4949643;28;20487;-56
2022/03/20 10:54:42;;;;;;;6.20;1.10;;;17.10;70.20;;;;;;4942139;29;20100;-58
2022/03/20 10:57:11;;;;;;;13.20;1.17;;;17.10;70.40;;;;;;4947079;29;20540;-58
2022/03/20 10:59:39;;;;;;;6.40;0.90;;;17.10;70.30;;;;;;4933880;29;20170;-61
2022/03/20 11:02:08;;;;;;;12.75;0.93;;;17.10;70.20;;;;;;4963244;28;20087;-59
2022/03/20 11:04:35;;;;;;;6.13;1.05;;;17.10;70.20;;;;;;4946185;29;20455;-57
2022/03/20 11:07:07;;;;;;;4.88;0.68;;;17.20;69.30;;;;;;4944944;29;20111;-57
2022/03/20 11:09:33;;;;;;;6.85;0.90;;;17.30;68.30;;;;;;4948728;29;20179;-58
2022/03/20 11:12:04;;;;;;;8.75;0.65;;;17.40;67.50;;;;;;4947197;29;20107;-57
2022/03/20 11:14:33;;;;;;;7.28;1.05;;;17.50;67.10;;;;;;4958661;28;20096;-57
2022/03/20 11:17:06;;;;;;;4.93;0.65;;;17.60;66.40;;;;;;4949564;28;20107;-59
2022/03/20 11:19:34;;;;;;;6.85;0.60;;;17.70;66.10;;;;;;4957549;28;20072;-58
2022/03/20 11:22:05;;;;;;;4.35;0.80;;;17.70;65.60;;;;;;4948213;29;20076;-61
2022/03/20 11:24:33;;;;;;;2.90;0.70;;;17.80;65.20;;;;;;4960603;28;20134;-57
2022/03/20 11:27:02;;;;;;;2.35;0.80;;;17.80;65.00;;;;;;4952956;28;20088;-61
2022/03/20 11:29:39;;;;;;;11.05;1.30;;;17.80;65.00;;;;;;4952702;28;20131;-58
2022/03/20 11:32:08;;;;;;;5.03;0.60;;;17.80;65.10;;;;;;4949743;28;20126;-58
2022/03/20 11:34:35;;;;;;;7.95;0.77;;;17.80;65.20;;;;;;4946437;29;20087;-55
2022/03/20 11:37:06;;;;;;;1.33;0.40;;;17.80;65.20;;;;;;4963313;28;20067;-61
2022/03/20 11:39:34;;;;;;;2.70;0.80;;;17.80;65.30;;;;;;4964121;28;20166;-57
2022/03/20 11:42:22;;;;;;;2.20;0.50;;;17.80;65.50;;;;;;4933130;29;20072;-60
2022/03/20 11:44:54;;;;;;;0.70;0.50;;;17.80;65.80;;;;;;4948966;29;20532;-58
2022/03/20 11:47:22;;;;;;;3.85;0.70;;;17.80;66.00;;;;;;4952011;28;20087;-57
2022/03/20 11:50:15;;;;;;;2.75;0.60;;;17.80;66.10;;;;;;4949280;28;20532;-57
2022/03/20 11:52:46;;;;;;;2.88;0.40;;;17.70;66.20;;;;;;4942487;29;20120;-58
2022/03/20 11:55:29;;;;;;;2.05;0.40;;;17.80;66.00;;;;;;4948019;28;20087;-56
2022/03/20 11:58:12;;;;;;;6.40;0.80;;;17.80;65.70;;;;;;4966080;28;20127;-56
2022/03/20 12:00:42;;;;;;;2.28;0.60;;;17.80;65.30;;;;;;4950386;28;20088;-57
2022/03/20 12:03:14;;;;;;;10.05;0.75;;;17.80;65.10;;;;;;4960836;28;20082;-60
2022/03/20 12:06:04;;;;;;;11.60;1.00;;;17.90;64.90;;;;;;4951476;28;20198;-60
2022/03/20 12:08:53;;;;;;;7.28;0.80;;;17.80;65.00;;;;;;4954018;28;20080;-61
2022/03/20 12:11:31;;;;;;;8.45;0.98;;;17.90;65.10;;;;;;4952713;28;20076;-55
2022/03/20 12:14:20;;;;;;;10.68;0.90;;;17.90;65.00;;;;;;4952836;28;20532;-56
2022/03/20 12:16:51;;;;;;;8.25;0.98;;;17.80;64.90;;;;;;4959882;28;20075;-57
2022/03/20 12:19:24;;;;;;;12.23;1.63;;;17.80;65.00;;;;;;4961616;28;20535;-58
2022/03/20 12:22:00;;;;;;;5.88;0.82;;;17.80;65.00;;;;;;4958258;28;20096;-59
2022/03/20 12:24:35;;;;;;;8.20;0.70;;;17.90;65.10;;;;;;4949816;29;20563;-58
2022/03/20 12:29:47;;;;;;;4.75;0.60;;;17.90;64.70;;;;;;4949195;28;20102;-56
2022/03/20 12:32:15;;;;;;;4.30;0.60;;;17.90;64.60;;;;;;4950969;28;20544;-58
2022/03/20 12:35:05;;;;;;;1.40;0.50;;;17.90;64.00;;;;;;4967291;28;20480;-58
2022/03/20 12:37:35;;;;;;;4.78;0.45;;;17.90;63.70;;;;;;4961091;28;20183;-60
2022/03/20 12:40:23;;;;;;;1.25;0.40;;;18.00;63.20;;;;;;4949575;29;20072;-59
2022/03/20 12:43:05;;;;;;;1.35;0.50;;;18.00;62.40;;;;;;4960615;28;20598;-60
2022/03/20 12:45:33;;;;;;;4.70;0.80;;;18.00;62.00;;;;;;4949607;28;20570;-58
2022/03/20 12:48:19;;;;;;;2.05;0.80;;;18.00;61.80;;;;;;4943908;29;20080;-60
2022/03/20 12:50:55;;;;;;;2.20;0.60;;;18.00;61.90;;;;;;4926325;28;20166;-59
2022/03/20 12:53:23;;;;;;;1.52;0.75;;;18.00;62.00;;;;;;4950547;28;20084;-59
2022/03/20 12:55:58;;;;;;;1.27;0.50;;;17.90;62.30;;;;;;4956077;28;20187;-57
2022/03/20 12:58:29;;;;;;;2.25;0.57;;;17.90;62.50;;;;;;4950876;28;20071;-61
2022/03/20 13:00:58;;;;;;;0.80;0.40;;;17.90;62.90;;;;;;4967427;28;20079;-60
2022/03/20 13:03:26;;;;;;;4.03;0.68;;;17.90;63.20;;;;;;4951691;28;20582;-57
2022/03/20 13:05:58;;;;;;;3.92;0.55;;;17.80;63.40;;;;;;4960756;28;20116;-61
2022/03/20 13:08:39;;;;;;;2.50;0.52;;;17.80;63.50;;;;;;4936661;29;20502;-57
2022/03/20 13:11:48;;;;;;;0.55;0.32;;;17.80;65.20;;;;;;4959800;28;20096;-56
2022/03/20 13:13:58;;;;;;;1.30;0.60;;;17.60;66.40;;;;;;4950757;28;20098;-57
2022/03/20 13:16:26;;;;;;;3.97;0.75;;;17.60;67.20;;;;;;4948387;29;20124;-58
2022/03/20 13:18:53;;;;;;;1.42;0.40;;;17.50;67.50;;;;;;4961890;28;20068;-58
2022/03/20 13:21:19;;;;;;;1.27;0.47;;;17.50;67.40;;;;;;4950674;29;20103;-57